createdAt,value
2022-09-17T00:01:24.938Z,18.30
2022-09-17T00:03:55.004Z,18.20
2022-09-17T00:06:24.881Z,18.20
2022-09-17T00:08:54.538Z,18.30
2022-09-17T00:11:26.145Z,18.20
2022-09-17T00:13:55.422Z,18.10
2022-09-17T00:16:29.239Z,18.10
2022-09-17T00:18:58.331Z,17.90
2022-09-17T00:21:27.122Z,18.00
2022-09-17T00:23:56.262Z,18.00
2022-09-17T00:26:24.835Z,18.00
2022-09-17T00:28:54.092Z,18.00
2022-09-17T00:31:23.300Z,18.00
2022-09-17T00:33:53.812Z,18.00
2022-09-17T00:36:23.053Z,18.00
2022-09-17T00:38:51.814Z,18.00
2022-09-17T00:41:20.365Z,17.90
2022-09-17T00:43:52.066Z,17.90
2022-09-17T00:46:28.914Z,17.90
2022-09-17T00:49:00.150Z,17.90
2022-09-17T00:51:33.985Z,17.80
2022-09-17T00:54:03.951Z,17.80
2022-09-17T00:56:36.093Z,17.80
2022-09-17T00:59:04.613Z,17.60
2022-09-17T01:01:33.306Z,17.70
2022-09-17T01:04:03.511Z,17.60
2022-09-17T01:06:35.712Z,17.60
2022-09-17T01:09:23.214Z,17.70
2022-09-17T01:12:12.759Z,17.80
2022-09-17T01:14:54.017Z,18.00
2022-09-17T01:17:29.352Z,18.20
2022-09-17T01:20:27.896Z,18.20
2022-09-17T01:23:10.339Z,18.40
2022-09-17T01:25:49.698Z,18.40
2022-09-17T01:28:42.825Z,18.40
2022-09-17T01:31:27.171Z,18.10
2022-09-17T01:34:02.880Z,18.00
2022-09-17T01:36:41.816Z,18.10
2022-09-17T01:39:19.621Z,18.10
2022-09-17T01:41:54.750Z,18.20
2022-09-17T01:44:28.500Z,18.30
2022-09-17T01:47:02.750Z,18.30
2022-09-17T01:49:32.814Z,18.40
2022-09-17T01:52:03.181Z,18.40
2022-09-17T01:54:37.141Z,18.20
2022-09-17T01:57:13.063Z,17.90
2022-09-17T01:59:44.259Z,17.90
2022-09-17T02:02:17.789Z,17.80
2022-09-17T02:04:53.401Z,17.70
2022-09-17T02:07:24.145Z,17.70
2022-09-17T02:09:59.407Z,17.80
2022-09-17T02:12:33.185Z,17.90
2022-09-17T02:15:04.440Z,17.90
2022-09-17T02:17:39.185Z,17.90
2022-09-17T02:20:08.453Z,18.00
2022-09-17T02:22:43.416Z,18.00
2022-09-17T02:25:19.633Z,18.20
2022-09-17T02:27:59.055Z,18.30
2022-09-17T02:30:27.141Z,18.40
2022-09-17T02:32:57.120Z,18.40
2022-09-17T02:35:25.553Z,18.40
2022-09-17T02:37:53.525Z,18.40
2022-09-17T02:40:28.481Z,18.40
2022-09-17T02:43:12.029Z,18.30
2022-09-17T02:45:50.730Z,18.30
2022-09-17T02:48:35.307Z,18.20
2022-09-17T02:51:26.354Z,18.10
2022-09-17T02:54:02.116Z,18.10
2022-09-17T02:56:39.022Z,18.20
2022-09-17T02:59:13.419Z,17.90
2022-09-17T03:01:44.500Z,17.90
2022-09-17T03:04:16.942Z,17.60
2022-09-17T03:06:47.389Z,17.60
2022-09-17T03:09:15.813Z,17.40
2022-09-17T03:11:44.125Z,17.30
2022-09-17T03:14:12.116Z,17.20
2022-09-17T03:16:40.250Z,17.10
2022-09-17T03:19:08.250Z,16.90
2022-09-17T03:21:37.598Z,16.80
2022-09-17T03:24:05.935Z,16.80
2022-09-17T03:26:33.979Z,16.80
2022-09-17T03:29:01.934Z,16.80
2022-09-17T03:31:30.321Z,16.80
2022-09-17T03:33:58.768Z,16.80
2022-09-17T03:36:27.074Z,16.80
2022-09-17T03:38:57.144Z,16.50
2022-09-17T03:41:25.689Z,16.60
2022-09-17T03:43:54.254Z,16.70
2022-09-17T03:46:22.429Z,16.70
2022-09-17T03:48:50.676Z,16.70
2022-09-17T03:51:18.677Z,16.70
2022-09-17T03:53:46.626Z,16.80
2022-09-17T03:56:16.248Z,16.70
2022-09-17T03:58:44.225Z,16.70
2022-09-17T04:01:12.590Z,16.80
2022-09-17T04:03:40.751Z,17.00
2022-09-17T04:06:09.006Z,17.00
2022-09-17T04:08:37.114Z,17.00
2022-09-17T04:11:05.185Z,16.70
2022-09-17T04:13:34.745Z,16.80
2022-09-17T04:16:03.534Z,16.90
2022-09-17T04:18:31.677Z,17.00
2022-09-17T04:21:00.201Z,17.10
2022-09-17T04:23:28.199Z,17.10
2022-09-17T04:25:56.282Z,17.10
2022-09-17T04:28:24.271Z,17.00
2022-09-17T04:30:53.791Z,17.00
2022-09-17T04:33:21.947Z,17.00
2022-09-17T04:35:50.274Z,17.00
2022-09-17T04:38:20.540Z,16.90
2022-09-17T04:40:48.647Z,16.90
2022-09-17T04:43:16.604Z,16.80
2022-09-17T04:45:47.148Z,16.70
2022-09-17T04:48:16.563Z,16.70
2022-09-17T04:50:44.941Z,16.80
2022-09-17T04:53:13.357Z,16.80
2022-09-17T04:55:41.364Z,16.70
2022-09-17T04:58:09.386Z,16.50
2022-09-17T05:00:38.455Z,16.60
2022-09-17T05:03:06.459Z,16.70
2022-09-17T05:05:35.855Z,16.60
2022-09-17T05:08:04.361Z,16.40
2022-09-17T05:10:32.350Z,16.50
2022-09-17T05:13:00.321Z,16.50
2022-09-17T05:15:28.884Z,16.30
2022-09-17T05:17:57.234Z,16.30
2022-09-17T05:20:25.236Z,16.40
2022-09-17T05:22:54.649Z,16.40
2022-09-17T05:25:24.892Z,16.40
2022-09-17T05:27:53.754Z,16.50
2022-09-17T05:30:22.235Z,16.50
2022-09-17T05:32:50.405Z,16.50
2022-09-17T05:35:18.559Z,16.20
2022-09-17T05:37:46.553Z,16.20
2022-09-17T05:40:16.809Z,15.90
2022-09-17T05:42:44.898Z,15.60
2022-09-17T05:45:12.947Z,15.60
2022-09-17T05:47:40.941Z,15.60
2022-09-17T05:50:09.600Z,15.40
2022-09-17T05:52:37.716Z,15.50
2022-09-17T05:55:06.381Z,15.70
2022-09-17T05:57:35.710Z,15.80
2022-09-17T06:00:04.844Z,15.90
2022-09-17T06:02:32.817Z,16.00
2022-09-17T06:05:01.913Z,16.00
2022-09-17T06:07:29.926Z,16.10
2022-09-17T06:09:57.994Z,16.10
2022-09-17T06:12:26.034Z,16.20
2022-09-17T06:14:57.416Z,16.20
2022-09-17T06:17:25.999Z,16.10
2022-09-17T06:19:54.210Z,16.10
2022-09-17T06:22:22.422Z,16.00
2022-09-17T06:24:50.445Z,15.90
2022-09-17T06:27:18.505Z,15.90
2022-09-17T06:29:46.485Z,16.00
2022-09-17T06:32:17.082Z,16.00
2022-09-17T06:34:45.148Z,16.00
2022-09-17T06:37:13.110Z,15.80
2022-09-17T06:39:41.178Z,15.90
2022-09-17T06:42:09.246Z,15.90
2022-09-17T06:44:37.252Z,15.80
2022-09-17T06:47:05.648Z,15.90
2022-09-17T06:49:35.002Z,16.00
2022-09-17T06:52:04.217Z,15.80
2022-09-17T06:54:32.259Z,15.80
2022-09-17T06:57:00.270Z,15.80
2022-09-17T06:59:28.365Z,15.60
2022-09-17T07:01:56.577Z,15.70
2022-09-17T07:04:24.694Z,15.60
2022-09-17T07:06:54.071Z,15.70
2022-09-17T07:09:22.027Z,15.90
2022-09-17T07:11:50.208Z,15.90
2022-09-17T07:14:19.172Z,15.70
2022-09-17T07:16:47.204Z,15.30
2022-09-17T07:19:15.243Z,15.20
2022-09-17T07:21:43.328Z,15.20
2022-09-17T07:24:12.670Z,15.40
2022-09-17T07:26:40.707Z,15.60
2022-09-17T07:29:09.029Z,15.70
2022-09-17T07:31:37.187Z,15.60
2022-09-17T07:34:05.300Z,15.50
2022-09-17T07:36:33.363Z,15.30
2022-09-17T07:39:01.609Z,14.90
2022-09-17T07:41:30.969Z,14.90
2022-09-17T07:43:59.219Z,15.00
2022-09-17T07:46:27.343Z,14.90
2022-09-17T07:48:55.329Z,14.90
2022-09-17T07:51:24.931Z,14.80
2022-09-17T07:53:53.553Z,14.70
2022-09-17T07:56:21.841Z,14.60
2022-09-17T07:58:51.718Z,14.50
2022-09-17T08:01:21.234Z,14.50
2022-09-17T08:03:50.773Z,14.30
2022-09-17T08:06:20.866Z,14.40
2022-09-17T08:08:49.532Z,14.20
2022-09-17T08:11:32.741Z,14.10
2022-09-17T08:14:07.985Z,14.00
2022-09-17T08:16:36.073Z,14.10
2022-09-17T08:19:04.130Z,14.10
2022-09-17T08:21:32.248Z,14.10
2022-09-17T08:24:00.278Z,14.30
2022-09-17T08:26:28.326Z,14.50
2022-09-17T08:28:57.225Z,14.90
2022-09-17T08:31:28.444Z,15.10
2022-09-17T08:33:56.828Z,15.00
2022-09-17T08:36:26.297Z,14.70
2022-09-17T08:38:58.643Z,14.70
2022-09-17T08:41:37.065Z,15.00
2022-09-17T08:44:16.686Z,15.20
2022-09-17T08:46:48.768Z,15.50
2022-09-17T08:49:26.420Z,15.70
2022-09-17T08:52:17.414Z,15.80
2022-09-17T08:54:51.937Z,15.60
2022-09-17T08:57:28.539Z,15.70
2022-09-17T09:00:03.017Z,15.80
2022-09-17T09:02:47.061Z,15.80
2022-09-17T09:05:17.873Z,15.80
2022-09-17T09:07:50.072Z,16.10
2022-09-17T09:10:22.463Z,16.30
2022-09-17T09:12:52.426Z,16.30
2022-09-17T09:15:29.460Z,16.40
2022-09-17T09:18:03.152Z,16.50
2022-09-17T09:20:39.239Z,16.60
2022-09-17T09:23:16.530Z,16.40
2022-09-17T09:25:56.065Z,16.30
2022-09-17T09:28:50.334Z,16.30
2022-09-17T09:31:35.715Z,16.20
2022-09-17T09:34:06.200Z,16.10
2022-09-17T09:36:34.774Z,16.00
2022-09-17T09:39:08.837Z,16.00
2022-09-17T09:41:44.237Z,16.10
2022-09-17T09:44:14.451Z,16.10
2022-09-17T09:47:15.573Z,16.20
2022-09-17T09:50:02.579Z,16.40
2022-09-17T09:52:45.675Z,16.50
2022-09-17T09:55:27.956Z,16.50
2022-09-17T09:58:04.283Z,16.40
2022-09-17T10:00:36.786Z,16.40
2022-09-17T10:03:12.217Z,16.30
2022-09-17T10:05:41.915Z,16.40
2022-09-17T10:08:13.980Z,16.50
2022-09-17T10:10:56.664Z,16.50
2022-09-17T10:13:25.050Z,16.60
2022-09-17T10:15:55.158Z,16.70
2022-09-17T10:18:24.771Z,16.90
2022-09-17T10:21:02.084Z,16.90
2022-09-17T10:23:33.977Z,16.90
2022-09-17T10:26:02.091Z,17.00
2022-09-17T10:28:34.990Z,17.20
2022-09-17T10:31:08.996Z,17.20
2022-09-17T10:33:41.140Z,17.30
2022-09-17T10:36:14.806Z,17.30
2022-09-17T10:38:44.485Z,17.30
2022-09-17T10:41:21.822Z,17.40
2022-09-17T10:43:50.706Z,17.40
2022-09-17T10:46:27.237Z,17.40
2022-09-17T10:49:06.416Z,17.40
2022-09-17T10:51:36.153Z,17.50
2022-09-17T10:54:19.493Z,17.60
2022-09-17T10:56:52.550Z,17.70
2022-09-17T10:59:46.989Z,17.60
2022-09-17T11:02:42.021Z,17.60
2022-09-17T11:05:27.533Z,17.70
2022-09-17T11:08:05.642Z,17.80
2022-09-17T11:10:39.533Z,17.80
2022-09-17T11:13:18.528Z,17.80
2022-09-17T11:16:01.954Z,17.90
2022-09-17T11:18:51.306Z,17.90
2022-09-17T11:21:42.847Z,18.00
2022-09-17T11:24:48.741Z,18.00
2022-09-17T11:27:39.944Z,17.90
2022-09-17T11:30:17.693Z,17.90
2022-09-17T11:33:10.555Z,17.90
2022-09-17T11:35:42.256Z,17.90
2022-09-17T11:38:16.720Z,17.90
2022-09-17T11:40:50.678Z,17.80
2022-09-17T11:43:27.882Z,17.70
2022-09-17T11:46:04.869Z,17.80
2022-09-17T11:48:40.561Z,17.80
2022-09-17T11:51:24.407Z,17.70
2022-09-17T11:53:56.999Z,17.60
2022-09-17T11:56:31.412Z,17.60
2022-09-17T11:59:04.747Z,17.60
2022-09-17T12:01:38.182Z,17.60
2022-09-17T12:04:30.697Z,17.70
2022-09-17T12:07:04.498Z,17.70
2022-09-17T12:09:38.081Z,17.70
2022-09-17T12:12:31.899Z,17.70
2022-09-17T12:15:07.784Z,17.80
2022-09-17T12:17:40.092Z,17.90
2022-09-17T12:20:17.027Z,17.90
2022-09-17T12:22:50.053Z,17.70
2022-09-17T12:25:18.139Z,17.80
2022-09-17T12:27:55.238Z,17.90
2022-09-17T12:30:26.423Z,17.90
2022-09-17T12:33:18.677Z,18.00
2022-09-17T12:36:10.349Z,18.00
2022-09-17T12:39:02.654Z,17.90
2022-09-17T12:41:40.513Z,18.00
2022-09-17T12:44:26.775Z,17.90
2022-09-17T12:47:09.100Z,17.90
2022-09-17T12:49:56.337Z,18.00
2022-09-17T12:52:38.195Z,18.10
2022-09-17T12:55:24.918Z,18.10
2022-09-17T12:58:01.244Z,18.10
2022-09-17T13:00:34.251Z,18.00
2022-09-17T13:03:07.466Z,17.80
2022-09-17T13:06:05.824Z,17.80
2022-09-17T13:09:06.862Z,17.80
2022-09-17T13:12:10.144Z,18.00
2022-09-17T13:14:58.792Z,18.10
2022-09-17T13:17:36.011Z,18.00
2022-09-17T13:20:15.777Z,18.00
2022-09-17T13:22:46.812Z,18.10
2022-09-17T13:25:17.820Z,18.00
2022-09-17T13:27:46.914Z,18.00
2022-09-17T13:30:17.143Z,18.00
2022-09-17T13:32:54.086Z,18.00
2022-09-17T13:35:50.830Z,18.10
2022-09-17T13:38:23.685Z,18.20
2022-09-17T13:40:53.024Z,18.20
2022-09-17T13:43:27.111Z,18.20
2022-09-17T13:46:12.419Z,18.40
2022-09-17T13:48:55.044Z,18.40
2022-09-17T13:51:59.687Z,18.30
2022-09-17T13:54:39.746Z,18.20
2022-09-17T13:57:12.203Z,18.20
2022-09-17T13:59:52.714Z,18.10
2022-09-17T14:02:33.960Z,18.20
2022-09-17T14:05:26.445Z,18.10
2022-09-17T14:08:15.962Z,18.10
2022-09-17T14:10:45.156Z,18.10
2022-09-17T14:13:42.493Z,18.10
2022-09-17T14:16:35.837Z,18.10
2022-09-17T14:19:22.599Z,18.00
2022-09-17T14:22:03.948Z,18.00
2022-09-17T14:24:37.792Z,18.00
2022-09-17T14:27:22.617Z,17.90
2022-09-17T14:30:19.792Z,18.00
2022-09-17T14:32:59.263Z,17.90
2022-09-17T14:35:33.014Z,17.80
2022-09-17T14:38:06.838Z,17.80
2022-09-17T14:40:35.454Z,17.90
2022-09-17T14:43:04.589Z,17.90
2022-09-17T14:45:34.457Z,18.00
2022-09-17T14:48:27.296Z,18.00
2022-09-17T14:51:12.176Z,17.90
2022-09-17T14:53:41.489Z,17.80
2022-09-17T14:56:12.489Z,17.90
2022-09-17T14:58:44.839Z,18.00
2022-09-17T15:01:24.101Z,17.90
2022-09-17T15:04:08.804Z,17.80
2022-09-17T15:06:36.860Z,17.80
2022-09-17T15:09:06.233Z,17.70
2022-09-17T15:11:41.777Z,17.70
2022-09-17T15:14:16.536Z,17.80
2022-09-17T15:16:49.677Z,17.70
2022-09-17T15:19:23.682Z,17.70
2022-09-17T15:21:55.466Z,17.60
2022-09-17T15:24:34.116Z,17.60
2022-09-17T15:27:07.975Z,17.50
2022-09-17T15:29:37.646Z,17.50
2022-09-17T15:32:07.181Z,17.40
2022-09-17T15:34:35.138Z,17.40
2022-09-17T15:37:07.419Z,17.40
2022-09-17T15:39:42.359Z,17.40
2022-09-17T15:42:20.414Z,17.40
2022-09-17T15:44:48.442Z,17.40
2022-09-17T15:47:35.929Z,17.40
2022-09-17T15:50:19.252Z,17.40
2022-09-17T15:52:47.851Z,17.40
2022-09-17T15:55:37.111Z,17.40
2022-09-17T15:58:20.432Z,17.40
2022-09-17T16:00:48.783Z,17.50
2022-09-17T16:04:06.905Z,17.40
2022-09-17T16:06:39.210Z,17.40
2022-09-17T16:09:37.908Z,17.40
2022-09-17T16:12:07.631Z,17.40
2022-09-17T16:14:35.599Z,17.30
2022-09-17T16:17:19.343Z,17.20
2022-09-17T16:19:47.382Z,17.10
2022-09-17T16:22:15.371Z,17.20
2022-09-17T16:24:43.604Z,17.20
2022-09-17T16:27:19.209Z,17.20
2022-09-17T16:29:47.387Z,17.20
2022-09-17T16:32:15.453Z,17.00
2022-09-17T16:34:43.437Z,17.10
2022-09-17T16:37:13.635Z,17.00
2022-09-17T16:39:42.116Z,17.00
2022-09-17T16:42:10.129Z,17.10
2022-09-17T16:44:39.472Z,17.20
2022-09-17T16:47:07.578Z,17.20
2022-09-17T16:49:35.669Z,17.20
2022-09-17T16:52:03.837Z,17.10
2022-09-17T16:54:31.854Z,17.10
2022-09-17T16:57:01.103Z,17.00
2022-09-17T16:59:29.108Z,17.10
2022-09-17T17:01:58.437Z,17.10
2022-09-17T17:04:26.435Z,17.20
2022-09-17T17:06:54.440Z,17.30
2022-09-17T17:09:22.412Z,17.20
2022-09-17T17:11:51.583Z,17.30
2022-09-17T17:14:19.653Z,17.20
2022-09-17T17:16:47.662Z,17.20
2022-09-17T17:19:17.749Z,17.20
2022-09-17T17:21:47.253Z,17.20
2022-09-17T17:24:15.431Z,17.10
2022-09-17T17:26:43.516Z,17.00
2022-09-17T17:29:11.608Z,16.70
2022-09-17T17:31:39.635Z,16.60
2022-09-17T17:34:07.808Z,16.50
2022-09-17T17:36:37.137Z,16.30
2022-09-17T17:39:05.298Z,16.40
2022-09-17T17:41:33.335Z,16.50
2022-09-17T17:44:01.274Z,16.60
2022-09-17T17:46:29.338Z,16.60
2022-09-17T17:48:58.171Z,16.60
2022-09-17T17:51:27.284Z,16.50
2022-09-17T17:53:56.568Z,16.50
2022-09-17T17:56:24.549Z,16.30
2022-09-17T17:58:56.508Z,16.30
2022-09-17T18:01:27.279Z,16.30
2022-09-17T18:03:58.080Z,16.30
2022-09-17T18:06:26.761Z,16.30
2022-09-17T18:08:56.417Z,16.20
2022-09-17T18:11:25.355Z,16.10
2022-09-17T18:13:54.845Z,16.10
2022-09-17T18:16:24.024Z,15.90
2022-09-17T18:18:52.296Z,16.00
2022-09-17T18:21:22.490Z,16.00
2022-09-17T18:23:51.350Z,15.90
2022-09-17T18:26:23.169Z,15.80
2022-09-17T18:28:52.049Z,15.80
2022-09-17T18:31:23.764Z,15.80
2022-09-17T18:33:55.417Z,15.80
2022-09-17T18:36:23.473Z,15.60
2022-09-17T18:38:54.235Z,15.50
2022-09-17T18:41:23.686Z,15.40
2022-09-17T18:43:51.817Z,15.50
2022-09-17T18:46:19.936Z,15.20
2022-09-17T18:48:52.376Z,15.30
2022-09-17T18:51:20.796Z,15.30
2022-09-17T18:53:51.598Z,15.40
2022-09-17T18:56:21.508Z,15.30
2022-09-17T18:58:53.813Z,15.20
2022-09-17T19:01:24.898Z,15.20
2022-09-17T19:03:52.976Z,15.10
2022-09-17T19:06:20.958Z,15.10
2022-09-17T19:08:50.049Z,15.00
2022-09-17T19:11:18.041Z,15.00
2022-09-17T19:13:47.512Z,14.90
2022-09-17T19:16:17.401Z,14.60
2022-09-17T19:18:45.421Z,14.80
2022-09-17T19:21:17.673Z,14.90
2022-09-17T19:23:47.151Z,14.90
2022-09-17T19:26:17.308Z,14.90
2022-09-17T19:28:45.535Z,14.90
2022-09-17T19:31:15.528Z,14.80
2022-09-17T19:33:45.394Z,14.80
2022-09-17T19:36:16.239Z,14.80
2022-09-17T19:38:45.080Z,14.70
2022-09-17T19:41:14.923Z,14.60
2022-09-17T19:43:43.555Z,14.70
2022-09-17T19:46:13.855Z,14.60
2022-09-17T19:48:47.119Z,14.60
2022-09-17T19:51:15.622Z,14.60
2022-09-17T19:53:44.133Z,14.50
2022-09-17T19:56:14.048Z,14.50
2022-09-17T19:58:42.189Z,14.40
2022-09-17T20:01:10.640Z,14.30
2022-09-17T20:03:40.118Z,14.30
2022-09-17T20:06:11.608Z,14.30
2022-09-17T20:08:47.053Z,14.20
2022-09-17T20:11:16.500Z,14.20
2022-09-17T20:13:44.802Z,14.20
2022-09-17T20:16:15.780Z,14.20
2022-09-17T20:18:44.855Z,14.10
2022-09-17T20:21:16.378Z,14.10
2022-09-17T20:23:44.941Z,14.10
2022-09-17T20:26:14.137Z,14.10
2022-09-17T20:28:42.258Z,14.10
2022-09-17T20:31:12.925Z,14.10
2022-09-17T20:33:41.287Z,14.10
2022-09-17T20:36:14.135Z,14.00
2022-09-17T20:41:31.664Z,13.80
2022-09-17T20:44:00.024Z,13.80
2022-09-17T20:46:29.532Z,13.80
2022-09-17T20:48:58.675Z,13.80
2022-09-17T20:51:30.004Z,13.80
2022-09-17T20:53:58.711Z,13.70
2022-09-17T20:56:28.658Z,13.70
2022-09-17T20:59:03.989Z,13.70
2022-09-17T21:01:34.450Z,13.50
2022-09-17T21:04:03.899Z,13.40
2022-09-17T21:06:35.292Z,13.20
2022-09-17T21:09:03.914Z,13.40
2022-09-17T21:11:32.671Z,13.50
2022-09-17T21:14:01.390Z,13.60
2022-09-17T21:16:30.186Z,13.50
2022-09-17T21:18:59.546Z,13.50
2022-09-17T21:21:28.288Z,13.50
2022-09-17T21:24:01.371Z,13.50
2022-09-17T21:26:29.657Z,13.40
2022-09-17T21:28:58.633Z,13.40
2022-09-17T21:31:32.315Z,13.30
2022-09-17T21:34:02.900Z,13.30
2022-09-17T21:36:32.726Z,13.30
2022-09-17T21:39:04.493Z,13.30
2022-09-17T21:41:33.169Z,13.20
2022-09-17T21:44:01.419Z,13.30
2022-09-17T21:46:33.214Z,13.30
2022-09-17T21:49:03.156Z,13.30
2022-09-17T21:51:34.008Z,13.30
2022-09-17T21:54:05.486Z,13.20
2022-09-17T21:56:33.790Z,12.90
2022-09-17T21:59:03.176Z,12.80
2022-09-17T22:01:33.046Z,13.00
2022-09-17T22:04:02.098Z,13.00
2022-09-17T22:06:32.705Z,13.10
2022-09-17T22:09:04.393Z,13.10
2022-09-17T22:11:34.842Z,13.10
2022-09-17T22:14:08.835Z,13.00
2022-09-17T22:16:39.218Z,13.00
2022-09-17T22:19:08.732Z,13.00
2022-09-17T22:21:38.417Z,12.90
2022-09-17T22:24:09.256Z,12.80
2022-09-17T22:26:39.051Z,12.50
2022-09-17T22:29:10.490Z,12.40
2022-09-17T22:31:38.609Z,12.50
2022-09-17T22:34:09.185Z,12.60
2022-09-17T22:36:37.569Z,12.50
2022-09-17T22:39:08.311Z,12.40
2022-09-17T22:41:38.305Z,12.50
2022-09-17T22:44:08.469Z,12.50
2022-09-17T22:46:39.304Z,12.50
2022-09-17T22:49:08.228Z,12.40
2022-09-17T22:51:36.212Z,12.50
2022-09-17T22:54:05.828Z,12.50
2022-09-17T22:56:36.181Z,12.50
2022-09-17T22:59:05.025Z,12.60
2022-09-17T23:01:36.191Z,12.50
2022-09-17T23:04:05.813Z,12.50
2022-09-17T23:06:35.520Z,12.50
2022-09-17T23:09:04.040Z,12.30
2022-09-17T23:11:34.989Z,12.40
2022-09-17T23:14:09.629Z,12.50
2022-09-17T23:16:39.758Z,12.50
2022-09-17T23:19:08.231Z,12.50
2022-09-17T23:21:36.320Z,12.50
2022-09-17T23:24:04.621Z,12.50
2022-09-17T23:26:34.310Z,12.50
2022-09-17T23:29:11.063Z,12.40
2022-09-17T23:31:39.280Z,12.40
2022-09-17T23:34:08.013Z,12.40
2022-09-17T23:36:38.047Z,12.30
2022-09-17T23:39:08.043Z,12.30
2022-09-17T23:41:40.009Z,12.20
2022-09-17T23:44:14.851Z,12.20
2022-09-17T23:46:45.180Z,12.20
2022-09-17T23:49:14.936Z,12.10
2022-09-17T23:51:43.270Z,12.10
2022-09-17T23:54:11.279Z,12.10
2022-09-17T23:56:41.195Z,12.10
2022-09-17T23:59:10.377Z,12.10
